createdAt,value
2019-05-02T00:01:53.432Z,89.90
2019-05-02T00:04:22.851Z,90.20
2019-05-02T00:07:06.545Z,90.20
2019-05-02T00:09:47.493Z,90.30
2019-05-02T00:12:15.380Z,90.40
2019-05-02T00:14:44.997Z,90.30
2019-05-02T00:17:15.233Z,90.30
2019-05-02T00:19:45.038Z,90.20
2019-05-02T00:22:17.316Z,90.10
2019-05-02T00:24:48.349Z,90.10
2019-05-02T00:27:17.791Z,89.90
2019-05-02T00:29:47.206Z,89.30
2019-05-02T00:32:18.369Z,89.10
2019-05-02T00:34:48.095Z,88.80
2019-05-02T00:37:18.783Z,88.90
2019-05-02T00:39:49.198Z,88.70
2019-05-02T00:42:22.861Z,88.50
2019-05-02T00:44:50.894Z,88.30
2019-05-02T00:47:47.850Z,88.20
2019-05-02T00:50:17.895Z,87.90
2019-05-02T00:52:47.802Z,87.80
2019-05-02T00:55:17.222Z,88.00
2019-05-02T00:57:50.863Z,88.10
2019-05-02T01:00:19.673Z,88.10
2019-05-02T01:02:56.727Z,88.20
2019-05-02T01:05:26.040Z,88.70
2019-05-02T01:08:00.753Z,88.70
2019-05-02T01:10:27.080Z,88.70
2019-05-02T01:12:56.518Z,89.00
2019-05-02T01:15:25.799Z,88.90
2019-05-02T01:17:55.192Z,88.90
2019-05-02T01:20:27.680Z,88.80
2019-05-02T01:22:55.574Z,88.60
2019-05-02T01:25:24.900Z,88.70
2019-05-02T01:28:17.583Z,88.50
2019-05-02T01:31:05.387Z,88.50
2019-05-02T01:33:43.567Z,88.80
2019-05-02T01:36:26.043Z,88.70
2019-05-02T01:38:55.374Z,88.80
2019-05-02T01:41:29.192Z,88.90
2019-05-02T01:44:00.155Z,89.60
2019-05-02T01:46:27.458Z,88.40
2019-05-02T01:48:56.883Z,88.60
2019-05-02T01:51:26.180Z,88.40
2019-05-02T01:53:55.596Z,88.30
2019-05-02T01:56:28.644Z,88.20
2019-05-02T01:58:57.701Z,88.30
2019-05-02T02:01:27.062Z,88.20
2019-05-02T02:03:57.305Z,88.10
2019-05-02T02:06:26.728Z,88.10
2019-05-02T02:08:56.038Z,88.20
2019-05-02T02:11:28.245Z,88.70
2019-05-02T02:13:56.598Z,88.70
2019-05-02T02:16:25.956Z,89.90
2019-05-02T02:19:08.985Z,89.70
2019-05-02T02:22:02.949Z,90.10
2019-05-02T02:24:38.460Z,90.10
2019-05-02T02:27:08.262Z,90.00
2019-05-02T02:29:38.955Z,90.00
2019-05-02T02:32:08.718Z,90.10
2019-05-02T02:34:39.237Z,90.00
2019-05-02T02:37:13.213Z,90.10
2019-05-02T02:39:40.034Z,90.00
2019-05-02T02:42:09.517Z,90.00
2019-05-02T02:44:46.523Z,90.10
2019-05-02T02:47:19.002Z,90.10
2019-05-02T02:49:46.841Z,90.10
2019-05-02T02:52:16.528Z,90.30
2019-05-02T02:54:45.823Z,90.30
2019-05-02T02:57:25.816Z,90.30
2019-05-02T02:59:46.225Z,90.40
2019-05-02T03:02:15.772Z,90.50
2019-05-02T03:04:46.413Z,90.50
2019-05-02T03:07:25.349Z,90.60
2019-05-02T03:09:47.951Z,90.70
2019-05-02T03:12:36.152Z,90.80
2019-05-02T03:15:08.663Z,90.80
2019-05-02T03:17:38.127Z,90.90
2019-05-02T03:20:07.431Z,91.10
2019-05-02T03:22:41.943Z,91.00
2019-05-02T03:25:08.223Z,90.90
2019-05-02T03:27:40.286Z,91.20
2019-05-02T03:30:09.604Z,90.90
2019-05-02T03:32:39.161Z,90.90
2019-05-02T03:35:08.624Z,90.90
2019-05-02T03:37:38.154Z,90.90
2019-05-02T03:40:07.643Z,90.80
2019-05-02T03:42:44.424Z,90.90
2019-05-02T03:45:08.384Z,90.70
2019-05-02T03:47:43.717Z,90.70
2019-05-02T03:50:11.036Z,91.00
2019-05-02T03:52:43.505Z,90.70
2019-05-02T03:55:11.696Z,90.80
2019-05-02T03:57:42.451Z,90.60
2019-05-02T04:00:13.766Z,90.60
2019-05-02T04:02:43.662Z,90.50
2019-05-02T04:05:13.209Z,90.50
2019-05-02T04:07:45.346Z,90.30
2019-05-02T04:10:21.473Z,90.20
2019-05-02T04:12:58.071Z,90.00
2019-05-02T04:15:28.775Z,89.80
2019-05-02T04:17:55.622Z,89.50
2019-05-02T04:20:26.170Z,89.20
2019-05-02T04:22:56.596Z,88.80
2019-05-02T04:25:28.053Z,88.00
2019-05-02T04:28:00.007Z,87.90
2019-05-02T04:30:31.874Z,87.50
2019-05-02T04:33:01.410Z,86.80
2019-05-02T04:35:34.822Z,86.40
2019-05-02T04:38:08.007Z,85.90
2019-05-02T04:40:34.978Z,85.60
2019-05-02T04:43:08.183Z,85.10
2019-05-02T04:45:51.983Z,84.80
2019-05-02T04:48:08.449Z,84.30
2019-05-02T04:50:38.234Z,83.30
2019-05-02T04:53:08.652Z,83.80
2019-05-02T04:55:38.306Z,83.60
2019-05-02T04:58:09.143Z,83.10
2019-05-02T05:00:39.336Z,82.90
2019-05-02T05:03:15.685Z,82.80
2019-05-02T05:05:40.626Z,82.80
2019-05-02T05:08:10.064Z,82.40
2019-05-02T05:10:41.355Z,82.20
2019-05-02T05:13:12.073Z,82.10
2019-05-02T05:15:48.721Z,81.60
2019-05-02T05:18:14.643Z,81.50
2019-05-02T05:20:46.056Z,81.60
2019-05-02T05:23:25.482Z,80.90
2019-05-02T05:26:03.477Z,80.80
2019-05-02T05:28:28.823Z,80.10
2019-05-02T05:30:58.952Z,80.20
2019-05-02T05:33:29.262Z,79.60
2019-05-02T05:35:58.819Z,79.40
2019-05-02T05:38:32.240Z,79.20
2019-05-02T05:41:03.000Z,79.10
2019-05-02T05:43:30.241Z,78.50
2019-05-02T05:46:09.094Z,78.00
2019-05-02T05:48:32.133Z,77.50
2019-05-02T05:51:04.148Z,77.00
2019-05-02T05:53:33.653Z,76.80
2019-05-02T05:56:03.395Z,76.40
2019-05-02T05:58:32.957Z,76.80
2019-05-02T06:01:09.353Z,75.10
2019-05-02T06:03:41.511Z,74.60
2019-05-02T06:06:08.221Z,73.80
2019-05-02T06:08:39.201Z,73.70
2019-05-02T06:11:08.586Z,72.90
2019-05-02T06:13:42.885Z,72.50
2019-05-02T06:16:10.574Z,71.40
2019-05-02T06:18:43.582Z,69.00
2019-05-02T06:21:12.786Z,58.90
2019-05-02T06:23:42.190Z,48.80
2019-05-02T06:26:13.660Z,43.90
2019-05-02T06:28:43.272Z,38.70
2019-05-02T06:31:12.938Z,36.90
2019-05-02T06:33:42.276Z,34.50
2019-05-02T06:36:11.883Z,33.90
2019-05-02T06:38:41.215Z,32.20
2019-05-02T06:41:10.646Z,31.50
2019-05-02T06:43:41.212Z,29.60
2019-05-02T06:46:16.352Z,28.70
2019-05-02T06:48:42.253Z,29.30
2019-05-02T06:51:19.634Z,31.00
2019-05-02T06:53:46.964Z,29.90
2019-05-02T06:56:14.090Z,30.00
2019-05-02T06:58:43.646Z,30.70
2019-05-02T07:01:16.139Z,30.30
2019-05-02T07:03:46.224Z,31.40
2019-05-02T07:06:15.268Z,30.80
2019-05-02T07:08:44.634Z,30.50
2019-05-02T07:11:14.158Z,30.00
2019-05-02T07:13:43.846Z,30.30
2019-05-02T07:16:38.594Z,29.30
2019-05-02T07:19:29.179Z,29.00
2019-05-02T07:21:58.556Z,28.50
2019-05-02T07:24:30.597Z,28.00
2019-05-02T07:27:02.226Z,27.30
2019-05-02T07:29:31.226Z,27.10
2019-05-02T07:32:02.861Z,26.60
2019-05-02T07:34:32.350Z,26.40
2019-05-02T07:37:03.248Z,25.80
2019-05-02T07:39:36.135Z,26.30
2019-05-02T07:42:05.917Z,26.10
2019-05-02T07:44:34.862Z,26.70
2019-05-02T07:47:04.770Z,27.30
2019-05-02T07:49:34.363Z,26.80
2019-05-02T07:52:04.037Z,27.20
2019-05-02T07:54:33.313Z,26.90
2019-05-02T07:57:02.898Z,27.60
2019-05-02T07:59:32.171Z,27.00
2019-05-02T08:02:01.732Z,26.80
2019-05-02T08:04:31.110Z,26.60
2019-05-02T08:07:00.686Z,26.60
2019-05-02T08:09:30.031Z,26.70
2019-05-02T08:11:59.549Z,27.00
2019-05-02T08:14:29.305Z,27.30
2019-05-02T08:17:05.658Z,26.80
2019-05-02T08:19:31.907Z,26.90
2019-05-02T08:22:04.686Z,26.70
2019-05-02T08:24:33.104Z,26.50
2019-05-02T08:27:29.298Z,26.60
2019-05-02T08:30:00.021Z,25.70
2019-05-02T08:32:27.979Z,25.80
2019-05-02T08:34:57.417Z,25.40
2019-05-02T08:37:26.776Z,26.10
2019-05-02T08:39:56.290Z,26.10
2019-05-02T08:42:27.776Z,25.60
2019-05-02T08:45:01.013Z,25.50
2019-05-02T08:47:30.562Z,25.50
2019-05-02T08:50:00.101Z,26.20
2019-05-02T08:52:29.447Z,25.50
2019-05-02T08:54:58.745Z,25.40
2019-05-02T08:57:29.969Z,26.10
2019-05-02T09:00:01.384Z,26.50
2019-05-02T09:02:40.847Z,26.30
2019-05-02T09:05:04.564Z,25.80
2019-05-02T09:07:37.145Z,25.80
2019-05-02T09:10:05.846Z,25.90
2019-05-02T09:12:36.916Z,26.50
2019-05-02T09:15:07.561Z,27.20
2019-05-02T09:17:39.003Z,27.50
2019-05-02T09:20:16.601Z,27.60
2019-05-02T09:22:46.528Z,27.50
2019-05-02T09:25:14.674Z,27.10
2019-05-02T09:27:44.053Z,26.40
2019-05-02T09:30:17.181Z,26.10
2019-05-02T09:32:44.990Z,26.30
2019-05-02T09:35:14.328Z,26.70
2019-05-02T09:37:43.763Z,25.80
2019-05-02T09:40:16.668Z,26.70
2019-05-02T09:42:47.649Z,26.80
2019-05-02T09:45:22.767Z,26.60
2019-05-02T09:48:01.343Z,26.90
2019-05-02T09:50:29.404Z,27.10
2019-05-02T09:52:54.309Z,27.20
2019-05-02T09:55:23.721Z,27.60
2019-05-02T09:57:53.078Z,27.40
2019-05-02T10:00:46.375Z,27.10
2019-05-02T10:03:17.119Z,26.60
2019-05-02T10:05:46.611Z,27.30
2019-05-02T10:08:15.910Z,27.20
2019-05-02T10:10:46.163Z,27.60
2019-05-02T10:13:15.691Z,27.20
2019-05-02T10:15:45.108Z,26.90
2019-05-02T10:18:14.902Z,26.00
2019-05-02T10:20:45.649Z,25.90
2019-05-02T10:23:19.586Z,25.10
2019-05-02T10:25:46.942Z,25.50
2019-05-02T10:28:16.671Z,26.60
2019-05-02T10:30:47.272Z,26.00
2019-05-02T10:33:17.608Z,26.30
2019-05-02T10:35:48.427Z,25.90
2019-05-02T10:38:19.468Z,26.00
2019-05-02T10:40:54.703Z,25.70
2019-05-02T10:43:22.111Z,26.10
2019-05-02T10:45:56.853Z,26.00
2019-05-02T10:48:28.632Z,26.40
2019-05-02T10:51:25.333Z,27.00
2019-05-02T10:53:52.785Z,26.90
2019-05-02T10:56:24.321Z,27.00
2019-05-02T10:58:53.863Z,27.40
2019-05-02T11:01:24.770Z,27.60
2019-05-02T11:03:56.194Z,27.80
2019-05-02T11:06:25.536Z,27.00
2019-05-02T11:08:55.284Z,26.40
2019-05-02T11:11:24.898Z,26.20
2019-05-02T11:14:19.601Z,26.80
2019-05-02T11:17:20.411Z,26.60
2019-05-02T11:19:54.658Z,26.10
2019-05-02T11:22:24.198Z,25.00
2019-05-02T11:24:54.152Z,24.90
2019-05-02T11:27:23.417Z,25.30
2019-05-02T11:29:52.863Z,25.30
2019-05-02T11:32:22.290Z,25.90
2019-05-02T11:34:52.391Z,25.70
2019-05-02T11:37:22.652Z,26.10
2019-05-02T11:39:58.895Z,26.20
2019-05-02T11:42:27.194Z,25.60
2019-05-02T11:44:56.410Z,26.30
2019-05-02T11:47:26.712Z,26.90
2019-05-02T11:49:56.218Z,26.90
2019-05-02T11:52:27.574Z,26.40
2019-05-02T11:54:56.610Z,25.80
2019-05-02T11:57:28.692Z,25.50
2019-05-02T11:59:59.452Z,25.20
2019-05-02T12:02:58.125Z,25.30
2019-05-02T12:05:35.729Z,25.30
2019-05-02T12:08:08.310Z,26.20
2019-05-02T12:10:38.290Z,25.70
2019-05-02T12:13:12.032Z,25.70
2019-05-02T12:15:44.327Z,26.00
2019-05-02T12:18:14.310Z,26.20
2019-05-02T12:20:43.673Z,26.70
2019-05-02T12:23:13.223Z,26.80
2019-05-02T12:25:44.581Z,26.80
2019-05-02T12:28:19.207Z,26.50
2019-05-02T12:30:48.593Z,26.50
2019-05-02T12:33:19.250Z,27.00
2019-05-02T12:35:48.782Z,27.60
2019-05-02T12:38:18.170Z,27.40
2019-05-02T12:40:47.729Z,27.90
2019-05-02T12:43:17.192Z,28.20
2019-05-02T12:45:46.445Z,27.60
2019-05-02T12:48:16.012Z,27.90
2019-05-02T12:50:45.385Z,28.30
2019-05-02T12:53:14.762Z,27.90
2019-05-02T12:55:45.246Z,28.10
2019-05-02T12:58:14.709Z,27.90
2019-05-02T13:00:44.325Z,28.20
2019-05-02T13:03:36.821Z,28.30
2019-05-02T13:06:06.799Z,29.00
2019-05-02T13:08:48.893Z,28.90
2019-05-02T13:11:46.169Z,29.00
2019-05-02T13:14:19.752Z,29.40
2019-05-02T13:16:54.652Z,29.60
2019-05-02T13:19:26.502Z,29.90
2019-05-02T13:22:24.058Z,30.20
2019-05-02T13:24:56.610Z,30.00
2019-05-02T13:27:25.927Z,30.60
2019-05-02T13:29:55.623Z,30.60
2019-05-02T13:32:33.056Z,30.60
2019-05-02T13:35:27.835Z,30.40
2019-05-02T13:38:02.750Z,30.70
2019-05-02T13:40:39.124Z,30.60
2019-05-02T13:43:08.774Z,30.70
2019-05-02T13:45:56.901Z,30.00
2019-05-02T13:48:26.641Z,30.00
2019-05-02T13:50:55.950Z,30.60
2019-05-02T13:53:26.158Z,30.40
2019-05-02T13:56:14.493Z,30.90
2019-05-02T13:58:43.838Z,31.00
2019-05-02T14:01:13.762Z,30.10
2019-05-02T14:03:43.043Z,30.20
2019-05-02T14:06:12.507Z,29.70
2019-05-02T14:08:48.304Z,29.90
2019-05-02T14:11:35.807Z,30.00
2019-05-02T14:14:05.241Z,29.90
2019-05-02T14:16:34.850Z,29.50
2019-05-02T14:19:04.169Z,28.80
2019-05-02T14:21:34.746Z,29.00
2019-05-02T14:24:06.735Z,28.20
2019-05-02T14:26:36.284Z,27.90
2019-05-02T14:29:07.246Z,27.80
2019-05-02T14:31:36.766Z,27.60
2019-05-02T14:34:24.844Z,26.40
2019-05-02T14:36:58.934Z,26.70
2019-05-02T14:39:25.339Z,27.10
2019-05-02T14:41:54.997Z,27.10
2019-05-02T14:44:30.361Z,27.80
2019-05-02T14:46:55.557Z,28.10
2019-05-02T14:49:27.398Z,28.50
2019-05-02T14:51:57.273Z,28.60
2019-05-02T14:54:27.773Z,27.70
2019-05-02T14:57:17.245Z,27.60
2019-05-02T14:59:43.854Z,27.40
2019-05-02T15:02:28.923Z,27.70
2019-05-02T15:04:58.404Z,27.60
2019-05-02T15:07:31.553Z,27.30
2019-05-02T15:10:05.043Z,27.20
2019-05-02T15:12:32.970Z,27.60
2019-05-02T15:15:02.689Z,28.10
2019-05-02T15:17:33.688Z,28.70
2019-05-02T15:20:03.051Z,28.80
2019-05-02T15:22:37.353Z,29.00
2019-05-02T15:25:07.805Z,28.50
2019-05-02T15:27:41.868Z,28.60
2019-05-02T15:30:07.230Z,28.60
2019-05-02T15:32:59.149Z,28.90
2019-05-02T15:35:44.517Z,29.20
2019-05-02T15:38:20.693Z,30.00
2019-05-02T15:40:51.371Z,29.40
2019-05-02T15:43:18.646Z,29.50
2019-05-02T15:45:48.205Z,29.70
2019-05-02T15:48:22.820Z,29.80
2019-05-02T15:50:53.033Z,30.00
2019-05-02T15:53:49.695Z,30.20
2019-05-02T15:56:19.983Z,30.70
2019-05-02T15:58:47.866Z,30.30
2019-05-02T16:01:52.339Z,30.90
2019-05-02T16:04:25.638Z,31.10
2019-05-02T16:06:54.827Z,31.50
2019-05-02T16:09:28.171Z,31.60
2019-05-02T16:11:57.521Z,31.90
2019-05-02T16:14:34.190Z,32.40
2019-05-02T16:17:03.684Z,31.90
2019-05-02T16:19:35.017Z,32.20
2019-05-02T16:22:22.574Z,32.20
2019-05-02T16:24:53.484Z,32.50
2019-05-02T16:27:49.829Z,32.90
2019-05-02T16:30:22.385Z,33.10
2019-05-02T16:32:57.246Z,33.60
2019-05-02T16:35:27.650Z,33.60
2019-05-02T16:38:01.612Z,33.60
2019-05-02T16:40:32.838Z,33.50
2019-05-02T16:43:02.812Z,33.90
2019-05-02T16:45:32.882Z,34.00
2019-05-02T16:48:03.646Z,34.80
2019-05-02T16:50:36.674Z,34.70
2019-05-02T16:53:04.154Z,35.10
2019-05-02T16:55:34.181Z,35.00
2019-05-02T16:58:07.553Z,35.30
2019-05-02T17:00:41.835Z,35.60
2019-05-02T17:03:26.377Z,36.00
2019-05-02T17:05:56.280Z,36.00
2019-05-02T17:09:02.395Z,36.10
2019-05-02T17:11:37.164Z,36.10
2019-05-02T17:14:12.322Z,36.40
2019-05-02T17:17:07.610Z,36.20
2019-05-02T17:19:37.533Z,36.40
2019-05-02T17:22:11.999Z,36.90
2019-05-02T17:24:41.862Z,37.40
2019-05-02T17:27:20.359Z,38.50
2019-05-02T17:29:43.803Z,38.30
2019-05-02T17:32:13.552Z,38.30
2019-05-02T17:34:43.177Z,38.70
2019-05-02T17:37:15.652Z,39.20
2019-05-02T17:39:46.124Z,39.40
2019-05-02T17:42:16.987Z,39.30
2019-05-02T17:44:51.692Z,39.90
2019-05-02T17:47:20.595Z,39.60
2019-05-02T17:49:50.537Z,39.60
2019-05-02T17:52:32.545Z,40.10
2019-05-02T17:55:03.068Z,40.50
2019-05-02T17:57:33.343Z,40.60
2019-05-02T18:00:07.490Z,41.10
2019-05-02T18:02:37.714Z,41.00
2019-05-02T18:05:07.675Z,41.50
2019-05-02T18:07:37.130Z,42.00
2019-05-02T18:10:14.461Z,42.10
2019-05-02T18:12:38.056Z,42.60
2019-05-02T18:15:08.586Z,43.00
2019-05-02T18:17:37.854Z,43.70
2019-05-02T18:20:08.254Z,44.20
2019-05-02T18:22:39.937Z,44.80
2019-05-02T18:25:08.684Z,45.70
2019-05-02T18:27:38.128Z,46.40
2019-05-02T18:30:12.727Z,46.80
2019-05-02T18:32:43.048Z,47.60
2019-05-02T18:35:13.112Z,49.00
2019-05-02T18:37:46.820Z,49.20
2019-05-02T18:40:20.135Z,50.20
2019-05-02T18:42:49.387Z,50.80
2019-05-02T18:45:26.257Z,51.60
2019-05-02T18:48:01.199Z,52.30
2019-05-02T18:50:36.735Z,52.40
2019-05-02T18:53:08.175Z,52.90
2019-05-02T18:55:38.909Z,53.50
2019-05-02T18:58:09.510Z,54.60
2019-05-02T19:00:41.941Z,55.10
2019-05-02T19:03:13.232Z,55.40
2019-05-02T19:05:46.711Z,56.10
2019-05-02T19:08:28.272Z,56.80
2019-05-02T19:11:04.057Z,57.20
2019-05-02T19:13:18.905Z,57.30
2019-05-02T19:15:49.108Z,57.70
2019-05-02T19:18:19.677Z,58.50
2019-05-02T19:21:03.132Z,59.10
2019-05-02T19:23:33.015Z,59.30
2019-05-02T19:26:14.651Z,59.90
2019-05-02T19:28:59.695Z,60.30
2019-05-02T19:31:52.320Z,60.20
2019-05-02T19:34:22.827Z,59.70
2019-05-02T19:36:53.011Z,60.60
2019-05-02T19:39:24.296Z,60.70
2019-05-02T19:41:57.675Z,62.80
2019-05-02T19:44:29.614Z,63.20
2019-05-02T19:46:59.087Z,64.40
2019-05-02T19:49:32.814Z,64.80
2019-05-02T19:52:03.948Z,65.60
2019-05-02T19:54:39.281Z,66.20
2019-05-02T19:57:08.567Z,66.90
2019-05-02T19:59:38.249Z,67.50
2019-05-02T20:02:08.571Z,67.70
2019-05-02T20:04:42.762Z,68.50
2019-05-02T20:07:09.484Z,69.20
2019-05-02T20:09:43.624Z,69.60
2019-05-02T20:12:15.007Z,70.50
2019-05-02T20:14:47.568Z,71.90
2019-05-02T20:17:20.130Z,72.50
2019-05-02T20:19:52.746Z,72.80
2019-05-02T20:22:23.467Z,73.00
2019-05-02T20:24:58.343Z,73.60
2019-05-02T20:27:28.495Z,73.80
2019-05-02T20:29:58.276Z,74.60
2019-05-02T20:32:28.714Z,74.00
2019-05-02T20:34:58.443Z,73.70
2019-05-02T20:37:27.864Z,73.60
2019-05-02T20:40:02.767Z,73.80
2019-05-02T20:42:42.817Z,73.80
2019-05-02T20:45:12.359Z,74.40
2019-05-02T20:47:42.732Z,74.90
2019-05-02T20:50:15.192Z,76.20
2019-05-02T20:52:44.696Z,75.90
2019-05-02T20:55:14.474Z,76.00
2019-05-02T20:57:45.330Z,76.40
2019-05-02T21:00:23.552Z,76.60
2019-05-02T21:02:53.065Z,77.00
2019-05-02T21:05:27.234Z,77.40
2019-05-02T21:08:11.990Z,76.90
2019-05-02T21:10:45.107Z,76.90
2019-05-02T21:13:15.357Z,77.30
2019-05-02T21:15:46.228Z,77.50
2019-05-02T21:18:19.639Z,77.70
2019-05-02T21:20:48.910Z,78.00
2019-05-02T21:23:18.546Z,78.40
2019-05-02T21:25:48.081Z,78.50
2019-05-02T21:28:17.570Z,79.50
2019-05-02T21:30:47.567Z,80.40
2019-05-02T21:33:35.814Z,79.90
2019-05-02T21:36:05.728Z,80.50
2019-05-02T21:38:36.290Z,80.20
2019-05-02T21:41:09.525Z,79.30
2019-05-02T21:43:42.425Z,79.40
2019-05-02T21:46:11.747Z,79.30
2019-05-02T21:48:42.065Z,79.30
2019-05-02T21:51:33.817Z,79.50
2019-05-02T21:54:19.607Z,79.90
2019-05-02T21:56:52.719Z,80.30
2019-05-02T21:59:22.534Z,80.70
2019-05-02T22:01:53.506Z,80.70
2019-05-02T22:04:22.894Z,81.10
2019-05-02T22:06:52.439Z,80.60
2019-05-02T22:09:23.064Z,80.60
2019-05-02T22:11:52.938Z,80.90
2019-05-02T22:14:22.537Z,81.00
2019-05-02T22:16:52.907Z,81.00
2019-05-02T22:19:22.621Z,81.20
2019-05-02T22:21:52.585Z,81.20
2019-05-02T22:24:22.140Z,81.10
2019-05-02T22:26:52.627Z,81.40
2019-05-02T22:29:22.186Z,81.70
2019-05-02T22:31:54.435Z,82.10
2019-05-02T22:34:23.071Z,82.20
2019-05-02T22:36:54.238Z,82.40
2019-05-02T22:39:42.074Z,82.70
2019-05-02T22:42:12.842Z,83.10
2019-05-02T22:44:42.607Z,83.00
2019-05-02T22:47:14.030Z,83.00
2019-05-02T22:49:43.125Z,83.10
2019-05-02T22:52:14.392Z,83.20
2019-05-02T22:54:44.407Z,83.20
2019-05-02T22:57:14.237Z,82.90
2019-05-02T22:59:43.886Z,82.90
2019-05-02T23:02:14.966Z,82.80
2019-05-02T23:04:44.331Z,82.00
2019-05-02T23:07:13.729Z,81.80
2019-05-02T23:09:43.673Z,81.70
2019-05-02T23:12:13.509Z,81.80
2019-05-02T23:14:43.088Z,81.50
2019-05-02T23:17:13.975Z,82.00
2019-05-02T23:19:43.736Z,82.10
2019-05-02T23:22:15.612Z,84.60
2019-05-02T23:25:05.333Z,88.30
2019-05-02T23:27:42.746Z,90.20
2019-05-02T23:30:14.882Z,93.50
2019-05-02T23:32:44.398Z,93.60
2019-05-02T23:35:14.598Z,94.10
2019-05-02T23:37:45.520Z,93.60
2019-05-02T23:40:15.571Z,93.80
2019-05-02T23:42:46.204Z,94.30
2019-05-02T23:45:15.937Z,95.00
2019-05-02T23:47:45.345Z,95.10
2019-05-02T23:50:14.991Z,94.80
2019-05-02T23:52:44.879Z,94.40
2019-05-02T23:55:14.505Z,94.70
2019-05-02T23:57:43.881Z,94.70
